sensor_id;sensor_type;location;lat;lon;timestamp;P1;durP1;ratioP1;P2;durP2;ratioP2
37201;SDS011;37799;52.390;6.136;2023-07-09T00:01:56;6.53;;;1.92;;
37201;SDS011;37799;52.390;6.136;2023-07-09T00:04:22;8.80;;;2.22;;
37201;SDS011;37799;52.390;6.136;2023-07-09T00:06:47;7.68;;;2.00;;
37201;SDS011;37799;52.390;6.136;2023-07-09T00:09:17;6.53;;;2.08;;
37201;SDS011;37799;52.390;6.136;2023-07-09T00:11:45;5.05;;;1.58;;
37201;SDS011;37799;52.390;6.136;2023-07-09T00:14:11;6.28;;;1.77;;
37201;SDS011;37799;52.390;6.136;2023-07-09T00:16:37;5.68;;;1.88;;
37201;SDS011;37799;52.390;6.136;2023-07-09T00:19:11;6.63;;;1.75;;
37201;SDS011;37799;52.390;6.136;2023-07-09T00:21:44;6.70;;;2.15;;
37201;SDS011;37799;52.390;6.136;2023-07-09T00:24:11;6.25;;;1.90;;
37201;SDS011;37799;52.390;6.136;2023-07-09T00:26:37;7.40;;;2.15;;
37201;SDS011;37799;52.390;6.136;2023-07-09T00:29:07;7.00;;;2.50;;
37201;SDS011;37799;52.390;6.136;2023-07-09T00:31:34;4.82;;;1.65;;
37201;SDS011;37799;52.390;6.136;2023-07-09T00:34:03;6.60;;;1.90;;
37201;SDS011;37799;52.390;6.136;2023-07-09T00:36:29;8.80;;;2.42;;
37201;SDS011;37799;52.390;6.136;2023-07-09T00:38:59;5.68;;;1.85;;
37201;SDS011;37799;52.390;6.136;2023-07-09T00:41:30;6.20;;;1.80;;
37201;SDS011;37799;52.390;6.136;2023-07-09T00:43:58;5.45;;;1.50;;
37201;SDS011;37799;52.390;6.136;2023-07-09T00:49:12;6.90;;;2.00;;
37201;SDS011;37799;52.390;6.136;2023-07-09T00:51:42;6.32;;;1.77;;
37201;SDS011;37799;52.390;6.136;2023-07-09T00:54:23;5.22;;;1.40;;
37201;SDS011;37799;52.390;6.136;2023-07-09T00:56:55;5.05;;;1.67;;
37201;SDS011;37799;52.390;6.136;2023-07-09T01:01:54;5.00;;;1.60;;
37201;SDS011;37799;52.390;6.136;2023-07-09T01:04:20;4.65;;;1.52;;
37201;SDS011;37799;52.390;6.136;2023-07-09T01:06:52;6.88;;;1.67;;
37201;SDS011;37799;52.390;6.136;2023-07-09T01:09:21;6.30;;;1.63;;
37201;SDS011;37799;52.390;6.136;2023-07-09T01:11:48;7.60;;;2.03;;
37201;SDS011;37799;52.390;6.136;2023-07-09T01:14:14;5.57;;;1.80;;
37201;SDS011;37799;52.390;6.136;2023-07-09T01:16:44;7.53;;;1.60;;
37201;SDS011;37799;52.390;6.136;2023-07-09T01:19:22;5.00;;;1.50;;
37201;SDS011;37799;52.390;6.136;2023-07-09T01:21:51;5.18;;;1.48;;
37201;SDS011;37799;52.390;6.136;2023-07-09T01:27:16;6.95;;;2.53;;
37201;SDS011;37799;52.390;6.136;2023-07-09T01:29:44;6.57;;;1.50;;
37201;SDS011;37799;52.390;6.136;2023-07-09T01:32:14;7.88;;;1.75;;
37201;SDS011;37799;52.390;6.136;2023-07-09T01:34:43;5.38;;;1.88;;
37201;SDS011;37799;52.390;6.136;2023-07-09T01:37:09;6.38;;;1.58;;
37201;SDS011;37799;52.390;6.136;2023-07-09T01:39:34;6.10;;;2.03;;
37201;SDS011;37799;52.390;6.136;2023-07-09T01:42:01;7.97;;;1.90;;
37201;SDS011;37799;52.390;6.136;2023-07-09T01:44:26;5.85;;;2.10;;
37201;SDS011;37799;52.390;6.136;2023-07-09T01:46:54;6.85;;;2.13;;
37201;SDS011;37799;52.390;6.136;2023-07-09T01:49:19;7.47;;;1.55;;
37201;SDS011;37799;52.390;6.136;2023-07-09T01:51:46;5.60;;;1.40;;
37201;SDS011;37799;52.390;6.136;2023-07-09T01:54:14;7.38;;;2.45;;
37201;SDS011;37799;52.390;6.136;2023-07-09T01:56:42;4.78;;;1.33;;
37201;SDS011;37799;52.390;6.136;2023-07-09T01:59:07;5.82;;;1.70;;
37201;SDS011;37799;52.390;6.136;2023-07-09T02:01:36;6.05;;;1.75;;
37201;SDS011;37799;52.390;6.136;2023-07-09T02:04:03;5.88;;;1.58;;
37201;SDS011;37799;52.390;6.136;2023-07-09T02:06:28;6.82;;;1.70;;
37201;SDS011;37799;52.390;6.136;2023-07-09T02:08:57;5.82;;;1.42;;
37201;SDS011;37799;52.390;6.136;2023-07-09T02:11:23;7.18;;;2.22;;
37201;SDS011;37799;52.390;6.136;2023-07-09T02:13:48;6.40;;;1.70;;
37201;SDS011;37799;52.390;6.136;2023-07-09T02:16:13;5.97;;;1.42;;
37201;SDS011;37799;52.390;6.136;2023-07-09T02:18:39;5.75;;;1.80;;
37201;SDS011;37799;52.390;6.136;2023-07-09T02:21:04;5.30;;;1.55;;
37201;SDS011;37799;52.390;6.136;2023-07-09T02:23:29;5.00;;;1.60;;
37201;SDS011;37799;52.390;6.136;2023-07-09T02:25:55;7.13;;;2.08;;
37201;SDS011;37799;52.390;6.136;2023-07-09T02:28:20;7.35;;;1.90;;
37201;SDS011;37799;52.390;6.136;2023-07-09T02:30:45;6.03;;;2.10;;
37201;SDS011;37799;52.390;6.136;2023-07-09T02:33:11;5.88;;;1.95;;
37201;SDS011;37799;52.390;6.136;2023-07-09T02:35:36;6.38;;;1.75;;
37201;SDS011;37799;52.390;6.136;2023-07-09T02:38:02;5.45;;;1.67;;
37201;SDS011;37799;52.390;6.136;2023-07-09T02:40:28;5.78;;;1.83;;
37201;SDS011;37799;52.390;6.136;2023-07-09T02:42:54;5.40;;;1.90;;
37201;SDS011;37799;52.390;6.136;2023-07-09T02:45:19;5.45;;;1.60;;
37201;SDS011;37799;52.390;6.136;2023-07-09T02:47:44;6.15;;;1.95;;
37201;SDS011;37799;52.390;6.136;2023-07-09T02:50:10;6.18;;;1.65;;
37201;SDS011;37799;52.390;6.136;2023-07-09T02:52:36;5.20;;;1.52;;
37201;SDS011;37799;52.390;6.136;2023-07-09T02:55:01;5.47;;;1.80;;
37201;SDS011;37799;52.390;6.136;2023-07-09T02:57:27;5.32;;;1.90;;
37201;SDS011;37799;52.390;6.136;2023-07-09T02:59:52;7.40;;;2.15;;
37201;SDS011;37799;52.390;6.136;2023-07-09T03:02:17;6.25;;;1.70;;
37201;SDS011;37799;52.390;6.136;2023-07-09T03:04:43;8.43;;;1.90;;
37201;SDS011;37799;52.390;6.136;2023-07-09T03:07:08;7.05;;;1.55;;
37201;SDS011;37799;52.390;6.136;2023-07-09T03:09:33;7.32;;;2.00;;
37201;SDS011;37799;52.390;6.136;2023-07-09T03:11:59;6.00;;;1.95;;
37201;SDS011;37799;52.390;6.136;2023-07-09T03:14:24;7.40;;;2.10;;
37201;SDS011;37799;52.390;6.136;2023-07-09T03:16:50;6.47;;;2.22;;
37201;SDS011;37799;52.390;6.136;2023-07-09T03:19:15;6.95;;;2.15;;
37201;SDS011;37799;52.390;6.136;2023-07-09T03:21:41;8.75;;;2.83;;
37201;SDS011;37799;52.390;6.136;2023-07-09T03:24:06;7.40;;;2.03;;
37201;SDS011;37799;52.390;6.136;2023-07-09T03:26:32;8.02;;;2.60;;
37201;SDS011;37799;52.390;6.136;2023-07-09T03:28:57;7.45;;;2.83;;
37201;SDS011;37799;52.390;6.136;2023-07-09T03:31:23;9.73;;;2.95;;
37201;SDS011;37799;52.390;6.136;2023-07-09T03:33:49;6.38;;;2.40;;
37201;SDS011;37799;52.390;6.136;2023-07-09T03:36:15;6.25;;;2.28;;
37201;SDS011;37799;52.390;6.136;2023-07-09T03:38:41;7.15;;;2.38;;
37201;SDS011;37799;52.390;6.136;2023-07-09T03:41:06;7.60;;;2.50;;
37201;SDS011;37799;52.390;6.136;2023-07-09T03:43:32;7.60;;;2.40;;
37201;SDS011;37799;52.390;6.136;2023-07-09T03:45:57;6.68;;;2.05;;
37201;SDS011;37799;52.390;6.136;2023-07-09T03:48:23;6.95;;;2.25;;
37201;SDS011;37799;52.390;6.136;2023-07-09T03:50:49;9.43;;;2.50;;
37201;SDS011;37799;52.390;6.136;2023-07-09T03:53:15;7.70;;;1.98;;
37201;SDS011;37799;52.390;6.136;2023-07-09T03:55:41;10.35;;;2.15;;
37201;SDS011;37799;52.390;6.136;2023-07-09T03:58:07;6.43;;;2.30;;
37201;SDS011;37799;52.390;6.136;2023-07-09T04:00:34;7.28;;;2.15;;
37201;SDS011;37799;52.390;6.136;2023-07-09T04:03:00;7.72;;;2.47;;
37201;SDS011;37799;52.390;6.136;2023-07-09T04:05:26;7.72;;;2.42;;
37201;SDS011;37799;52.390;6.136;2023-07-09T04:07:52;8.98;;;2.67;;
37201;SDS011;37799;52.390;6.136;2023-07-09T04:10:17;6.43;;;2.63;;
37201;SDS011;37799;52.390;6.136;2023-07-09T04:12:43;7.47;;;2.33;;
37201;SDS011;37799;52.390;6.136;2023-07-09T04:15:09;8.25;;;3.17;;
37201;SDS011;37799;52.390;6.136;2023-07-09T04:17:37;7.75;;;3.08;;
37201;SDS011;37799;52.390;6.136;2023-07-09T04:20:04;5.82;;;1.95;;
37201;SDS011;37799;52.390;6.136;2023-07-09T04:22:33;8.00;;;2.38;;
37201;SDS011;37799;52.390;6.136;2023-07-09T04:25:00;7.15;;;2.20;;
37201;SDS011;37799;52.390;6.136;2023-07-09T04:27:25;7.85;;;2.83;;
37201;SDS011;37799;52.390;6.136;2023-07-09T04:29:53;7.18;;;2.45;;
37201;SDS011;37799;52.390;6.136;2023-07-09T04:32:19;8.25;;;2.50;;
37201;SDS011;37799;52.390;6.136;2023-07-09T04:34:45;8.18;;;2.67;;
37201;SDS011;37799;52.390;6.136;2023-07-09T04:37:11;8.98;;;3.08;;
37201;SDS011;37799;52.390;6.136;2023-07-09T04:39:37;7.63;;;2.65;;
37201;SDS011;37799;52.390;6.136;2023-07-09T04:42:03;8.43;;;2.70;;
37201;SDS011;37799;52.390;6.136;2023-07-09T04:44:30;8.77;;;2.47;;
37201;SDS011;37799;52.390;6.136;2023-07-09T04:46:55;8.57;;;2.72;;
37201;SDS011;37799;52.390;6.136;2023-07-09T04:49:21;9.45;;;2.72;;
37201;SDS011;37799;52.390;6.136;2023-07-09T04:51:46;7.75;;;2.83;;
37201;SDS011;37799;52.390;6.136;2023-07-09T04:54:11;9.25;;;3.15;;
37201;SDS011;37799;52.390;6.136;2023-07-09T04:56:40;7.97;;;2.70;;
37201;SDS011;37799;52.390;6.136;2023-07-09T04:59:06;9.70;;;3.28;;
37201;SDS011;37799;52.390;6.136;2023-07-09T05:01:31;9.05;;;2.85;;
37201;SDS011;37799;52.390;6.136;2023-07-09T05:03:56;8.05;;;2.47;;
37201;SDS011;37799;52.390;6.136;2023-07-09T05:06:22;7.30;;;2.40;;
37201;SDS011;37799;52.390;6.136;2023-07-09T05:08:47;8.30;;;3.03;;
37201;SDS011;37799;52.390;6.136;2023-07-09T05:11:13;8.10;;;2.90;;
37201;SDS011;37799;52.390;6.136;2023-07-09T05:13:39;7.05;;;2.45;;
37201;SDS011;37799;52.390;6.136;2023-07-09T05:16:04;6.78;;;2.55;;
37201;SDS011;37799;52.390;6.136;2023-07-09T05:18:30;12.05;;;3.10;;
37201;SDS011;37799;52.390;6.136;2023-07-09T05:20:55;8.55;;;2.95;;
37201;SDS011;37799;52.390;6.136;2023-07-09T05:23:21;7.75;;;2.97;;
37201;SDS011;37799;52.390;6.136;2023-07-09T05:26:00;8.15;;;2.83;;
37201;SDS011;37799;52.390;6.136;2023-07-09T05:28:27;11.45;;;2.90;;
37201;SDS011;37799;52.390;6.136;2023-07-09T05:30:53;7.35;;;2.85;;
37201;SDS011;37799;52.390;6.136;2023-07-09T05:33:18;8.40;;;2.70;;
37201;SDS011;37799;52.390;6.136;2023-07-09T05:35:44;8.33;;;2.60;;
37201;SDS011;37799;52.390;6.136;2023-07-09T05:38:10;9.43;;;3.38;;
37201;SDS011;37799;52.390;6.136;2023-07-09T05:40:35;7.57;;;2.67;;
37201;SDS011;37799;52.390;6.136;2023-07-09T05:43:01;7.43;;;2.60;;
37201;SDS011;37799;52.390;6.136;2023-07-09T05:45:26;7.53;;;2.60;;
37201;SDS011;37799;52.390;6.136;2023-07-09T05:47:52;6.28;;;2.33;;
37201;SDS011;37799;52.390;6.136;2023-07-09T05:50:17;7.28;;;2.85;;
37201;SDS011;37799;52.390;6.136;2023-07-09T05:52:42;7.65;;;2.50;;
37201;SDS011;37799;52.390;6.136;2023-07-09T05:55:08;7.60;;;2.80;;
37201;SDS011;37799;52.390;6.136;2023-07-09T05:57:33;7.85;;;2.58;;
37201;SDS011;37799;52.390;6.136;2023-07-09T05:59:59;7.55;;;2.50;;
37201;SDS011;37799;52.390;6.136;2023-07-09T06:02:24;7.63;;;2.90;;
37201;SDS011;37799;52.390;6.136;2023-07-09T06:04:49;7.82;;;2.42;;
37201;SDS011;37799;52.390;6.136;2023-07-09T06:07:15;8.38;;;2.65;;
37201;SDS011;37799;52.390;6.136;2023-07-09T06:09:41;8.40;;;2.55;;
37201;SDS011;37799;52.390;6.136;2023-07-09T06:12:07;8.38;;;2.28;;
37201;SDS011;37799;52.390;6.136;2023-07-09T06:14:33;6.97;;;2.22;;
37201;SDS011;37799;52.390;6.136;2023-07-09T06:17:00;6.30;;;2.55;;
37201;SDS011;37799;52.390;6.136;2023-07-09T06:19:26;8.35;;;3.15;;
37201;SDS011;37799;52.390;6.136;2023-07-09T06:21:52;7.90;;;3.03;;
37201;SDS011;37799;52.390;6.136;2023-07-09T06:24:17;9.45;;;2.38;;
37201;SDS011;37799;52.390;6.136;2023-07-09T06:26:43;6.55;;;2.25;;
37201;SDS011;37799;52.390;6.136;2023-07-09T06:29:08;7.93;;;2.43;;
37201;SDS011;37799;52.390;6.136;2023-07-09T06:31:34;6.78;;;2.33;;
37201;SDS011;37799;52.390;6.136;2023-07-09T06:34:01;8.23;;;2.85;;
37201;SDS011;37799;52.390;6.136;2023-07-09T06:36:26;6.78;;;2.35;;
37201;SDS011;37799;52.390;6.136;2023-07-09T06:38:52;7.32;;;2.35;;
37201;SDS011;37799;52.390;6.136;2023-07-09T06:41:17;7.18;;;2.42;;
37201;SDS011;37799;52.390;6.136;2023-07-09T06:43:42;6.20;;;2.00;;
37201;SDS011;37799;52.390;6.136;2023-07-09T06:46:09;6.50;;;2.28;;
37201;SDS011;37799;52.390;6.136;2023-07-09T06:48:40;7.05;;;2.40;;
37201;SDS011;37799;52.390;6.136;2023-07-09T06:51:06;7.15;;;2.20;;
37201;SDS011;37799;52.390;6.136;2023-07-09T06:53:31;7.22;;;2.30;;
37201;SDS011;37799;52.390;6.136;2023-07-09T06:55:58;7.82;;;2.25;;
37201;SDS011;37799;52.390;6.136;2023-07-09T06:58:24;6.55;;;1.98;;
37201;SDS011;37799;52.390;6.136;2023-07-09T07:00:56;6.55;;;2.50;;
37201;SDS011;37799;52.390;6.136;2023-07-09T07:03:21;5.68;;;2.03;;
37201;SDS011;37799;52.390;6.136;2023-07-09T07:05:48;6.90;;;2.15;;
37201;SDS011;37799;52.390;6.136;2023-07-09T07:08:15;7.55;;;2.50;;
37201;SDS011;37799;52.390;6.136;2023-07-09T07:10:43;6.10;;;2.08;;
37201;SDS011;37799;52.390;6.136;2023-07-09T07:13:08;6.65;;;2.28;;
37201;SDS011;37799;52.390;6.136;2023-07-09T07:15:36;5.97;;;2.13;;
37201;SDS011;37799;52.390;6.136;2023-07-09T07:18:02;5.63;;;1.92;;
37201;SDS011;37799;52.390;6.136;2023-07-09T07:20:28;7.00;;;2.67;;
37201;SDS011;37799;52.390;6.136;2023-07-09T07:22:54;5.50;;;2.00;;
37201;SDS011;37799;52.390;6.136;2023-07-09T07:25:20;7.68;;;2.72;;
37201;SDS011;37799;52.390;6.136;2023-07-09T07:27:45;6.03;;;2.10;;
37201;SDS011;37799;52.390;6.136;2023-07-09T07:30:11;6.60;;;2.42;;
37201;SDS011;37799;52.390;6.136;2023-07-09T07:32:38;8.65;;;2.33;;
37201;SDS011;37799;52.390;6.136;2023-07-09T07:35:07;5.80;;;2.10;;
37201;SDS011;37799;52.390;6.136;2023-07-09T07:37:32;6.25;;;1.83;;
37201;SDS011;37799;52.390;6.136;2023-07-09T07:39:59;6.15;;;2.05;;
37201;SDS011;37799;52.390;6.136;2023-07-09T07:42:24;7.30;;;2.60;;
37201;SDS011;37799;52.390;6.136;2023-07-09T07:44:50;6.95;;;2.67;;
37201;SDS011;37799;52.390;6.136;2023-07-09T07:47:15;8.13;;;2.33;;
37201;SDS011;37799;52.390;6.136;2023-07-09T07:49:40;6.50;;;2.37;;
37201;SDS011;37799;52.390;6.136;2023-07-09T07:52:06;5.47;;;2.27;;
37201;SDS011;37799;52.390;6.136;2023-07-09T07:54:32;6.50;;;2.30;;
37201;SDS011;37799;52.390;6.136;2023-07-09T07:56:57;6.63;;;2.05;;
37201;SDS011;37799;52.390;6.136;2023-07-09T07:59:23;7.85;;;2.25;;
37201;SDS011;37799;52.390;6.136;2023-07-09T08:01:49;6.15;;;2.20;;
37201;SDS011;37799;52.390;6.136;2023-07-09T08:04:14;6.50;;;2.17;;
37201;SDS011;37799;52.390;6.136;2023-07-09T08:06:40;7.70;;;2.33;;
37201;SDS011;37799;52.390;6.136;2023-07-09T08:09:05;7.32;;;2.15;;
37201;SDS011;37799;52.390;6.136;2023-07-09T08:11:32;7.57;;;2.78;;
37201;SDS011;37799;52.390;6.136;2023-07-09T08:13:58;8.00;;;2.27;;
37201;SDS011;37799;52.390;6.136;2023-07-09T08:16:23;5.80;;;2.03;;
37201;SDS011;37799;52.390;6.136;2023-07-09T08:18:49;7.47;;;2.20;;
37201;SDS011;37799;52.390;6.136;2023-07-09T08:21:16;5.25;;;1.73;;
37201;SDS011;37799;52.390;6.136;2023-07-09T08:23:42;5.65;;;1.98;;
37201;SDS011;37799;52.390;6.136;2023-07-09T08:26:07;4.97;;;1.52;;
37201;SDS011;37799;52.390;6.136;2023-07-09T08:28:33;4.50;;;1.48;;
37201;SDS011;37799;52.390;6.136;2023-07-09T08:31:00;5.03;;;1.98;;
37201;SDS011;37799;52.390;6.136;2023-07-09T08:33:25;5.28;;;1.60;;
37201;SDS011;37799;52.390;6.136;2023-07-09T08:35:52;4.70;;;1.55;;
37201;SDS011;37799;52.390;6.136;2023-07-09T08:38:18;5.95;;;2.20;;
37201;SDS011;37799;52.390;6.136;2023-07-09T08:40:53;8.50;;;1.98;;
37201;SDS011;37799;52.390;6.136;2023-07-09T08:46:26;6.68;;;1.67;;
37201;SDS011;37799;52.390;6.136;2023-07-09T08:49:03;4.90;;;1.85;;
37201;SDS011;37799;52.390;6.136;2023-07-09T08:51:39;6.32;;;2.08;;
37201;SDS011;37799;52.390;6.136;2023-07-09T08:54:30;4.03;;;1.30;;
37201;SDS011;37799;52.390;6.136;2023-07-09T08:56:59;5.72;;;1.88;;
37201;SDS011;37799;52.390;6.136;2023-07-09T08:59:32;5.85;;;1.73;;
37201;SDS011;37799;52.390;6.136;2023-07-09T09:01:59;6.25;;;2.30;;
37201;SDS011;37799;52.390;6.136;2023-07-09T09:04:28;4.77;;;1.67;;
37201;SDS011;37799;52.390;6.136;2023-07-09T09:07:01;3.92;;;1.40;;
37201;SDS011;37799;52.390;6.136;2023-07-09T09:09:38;4.90;;;1.58;;
37201;SDS011;37799;52.390;6.136;2023-07-09T09:12:19;5.70;;;1.80;;
37201;SDS011;37799;52.390;6.136;2023-07-09T09:17:41;6.38;;;1.58;;
37201;SDS011;37799;52.390;6.136;2023-07-09T09:20:25;5.50;;;2.00;;
37201;SDS011;37799;52.390;6.136;2023-07-09T09:25:41;4.40;;;1.27;;
37201;SDS011;37799;52.390;6.136;2023-07-09T09:28:12;4.72;;;1.23;;
37201;SDS011;37799;52.390;6.136;2023-07-09T09:30:39;5.15;;;1.30;;
37201;SDS011;37799;52.390;6.136;2023-07-09T09:33:08;5.32;;;1.70;;
37201;SDS011;37799;52.390;6.136;2023-07-09T09:35:37;7.50;;;1.20;;
37201;SDS011;37799;52.390;6.136;2023-07-09T09:38:12;4.60;;;1.70;;
37201;SDS011;37799;52.390;6.136;2023-07-09T09:40:41;4.88;;;1.40;;
37201;SDS011;37799;52.390;6.136;2023-07-09T09:43:14;3.80;;;1.20;;
37201;SDS011;37799;52.390;6.136;2023-07-09T09:45:45;4.38;;;1.48;;
37201;SDS011;37799;52.390;6.136;2023-07-09T09:48:29;4.97;;;1.50;;
37201;SDS011;37799;52.390;6.136;2023-07-09T09:50:56;4.07;;;1.00;;
37201;SDS011;37799;52.390;6.136;2023-07-09T09:53:26;4.28;;;1.20;;
37201;SDS011;37799;52.390;6.136;2023-07-09T09:55:55;3.65;;;1.23;;
37201;SDS011;37799;52.390;6.136;2023-07-09T09:58:27;3.35;;;0.98;;
37201;SDS011;37799;52.390;6.136;2023-07-09T10:00:54;10.95;;;1.65;;
37201;SDS011;37799;52.390;6.136;2023-07-09T10:03:21;5.75;;;1.30;;
37201;SDS011;37799;52.390;6.136;2023-07-09T10:05:58;3.67;;;1.13;;
37201;SDS011;37799;52.390;6.136;2023-07-09T10:08:31;5.18;;;1.60;;
37201;SDS011;37799;52.390;6.136;2023-07-09T10:13:45;3.90;;;1.25;;
37201;SDS011;37799;52.390;6.136;2023-07-09T10:19:14;3.60;;;1.00;;
37201;SDS011;37799;52.390;6.136;2023-07-09T10:22:05;4.13;;;1.10;;
37201;SDS011;37799;52.390;6.136;2023-07-09T10:24:52;3.95;;;1.23;;
37201;SDS011;37799;52.390;6.136;2023-07-09T10:33:09;4.18;;;1.35;;
37201;SDS011;37799;52.390;6.136;2023-07-09T10:38:43;6.15;;;1.20;;
37201;SDS011;37799;52.390;6.136;2023-07-09T10:41:18;5.07;;;1.00;;
37201;SDS011;37799;52.390;6.136;2023-07-09T10:43:50;3.10;;;1.10;;
37201;SDS011;37799;52.390;6.136;2023-07-09T10:46:23;3.67;;;1.13;;
37201;SDS011;37799;52.390;6.136;2023-07-09T10:48:51;4.97;;;1.23;;
37201;SDS011;37799;52.390;6.136;2023-07-09T10:51:21;5.03;;;1.40;;
37201;SDS011;37799;52.390;6.136;2023-07-09T10:57:03;3.60;;;0.98;;
37201;SDS011;37799;52.390;6.136;2023-07-09T10:59:35;3.22;;;0.93;;
37201;SDS011;37799;52.390;6.136;2023-07-09T11:02:13;3.63;;;1.02;;
37201;SDS011;37799;52.390;6.136;2023-07-09T11:04:48;3.97;;;1.23;;
37201;SDS011;37799;52.390;6.136;2023-07-09T11:07:20;3.33;;;0.80;;
37201;SDS011;37799;52.390;6.136;2023-07-09T11:09:50;4.25;;;1.20;;
37201;SDS011;37799;52.390;6.136;2023-07-09T11:15:27;3.85;;;1.13;;
37201;SDS011;37799;52.390;6.136;2023-07-09T11:18:05;3.47;;;1.05;;
37201;SDS011;37799;52.390;6.136;2023-07-09T11:20:33;4.63;;;1.55;;
37201;SDS011;37799;52.390;6.136;2023-07-09T11:23:20;6.05;;;1.20;;
37201;SDS011;37799;52.390;6.136;2023-07-09T11:25:48;4.55;;;1.30;;
37201;SDS011;37799;52.390;6.136;2023-07-09T11:28:36;4.15;;;1.08;;
37201;SDS011;37799;52.390;6.136;2023-07-09T11:31:07;4.53;;;1.50;;
37201;SDS011;37799;52.390;6.136;2023-07-09T11:33:46;3.92;;;1.17;;
37201;SDS011;37799;52.390;6.136;2023-07-09T11:36:14;4.20;;;1.17;;
37201;SDS011;37799;52.390;6.136;2023-07-09T11:38:48;3.92;;;1.23;;
37201;SDS011;37799;52.390;6.136;2023-07-09T11:41:27;3.50;;;0.90;;
37201;SDS011;37799;52.390;6.136;2023-07-09T11:46:36;4.07;;;1.27;;
37201;SDS011;37799;52.390;6.136;2023-07-09T11:49:14;4.45;;;1.15;;
37201;SDS011;37799;52.390;6.136;2023-07-09T11:51:42;4.32;;;1.23;;
37201;SDS011;37799;52.390;6.136;2023-07-09T11:54:12;5.05;;;1.42;;
37201;SDS011;37799;52.390;6.136;2023-07-09T11:56:38;3.88;;;1.08;;
37201;SDS011;37799;52.390;6.136;2023-07-09T11:59:04;4.10;;;1.70;;
37201;SDS011;37799;52.390;6.136;2023-07-09T12:01:42;4.20;;;1.08;;
37201;SDS011;37799;52.390;6.136;2023-07-09T12:04:13;3.60;;;0.98;;
37201;SDS011;37799;52.390;6.136;2023-07-09T12:06:40;3.92;;;1.08;;
37201;SDS011;37799;52.390;6.136;2023-07-09T12:09:18;3.72;;;1.10;;
37201;SDS011;37799;52.390;6.136;2023-07-09T12:11:46;2.67;;;0.90;;
37201;SDS011;37799;52.390;6.136;2023-07-09T12:14:14;4.63;;;1.20;;
37201;SDS011;37799;52.390;6.136;2023-07-09T12:16:42;2.90;;;0.90;;
37201;SDS011;37799;52.390;6.136;2023-07-09T12:19:10;3.60;;;0.98;;
37201;SDS011;37799;52.390;6.136;2023-07-09T12:21:38;3.55;;;0.93;;
37201;SDS011;37799;52.390;6.136;2023-07-09T12:26:42;2.97;;;1.00;;
37201;SDS011;37799;52.390;6.136;2023-07-09T12:29:08;4.68;;;1.20;;
37201;SDS011;37799;52.390;6.136;2023-07-09T12:31:35;4.97;;;1.20;;
37201;SDS011;37799;52.390;6.136;2023-07-09T12:34:00;2.92;;;0.90;;
37201;SDS011;37799;52.390;6.136;2023-07-09T12:36:26;4.43;;;1.30;;
37201;SDS011;37799;52.390;6.136;2023-07-09T12:38:55;5.88;;;0.98;;
37201;SDS011;37799;52.390;6.136;2023-07-09T12:41:44;5.07;;;1.30;;
37201;SDS011;37799;52.390;6.136;2023-07-09T12:44:20;4.07;;;1.13;;
37201;SDS011;37799;52.390;6.136;2023-07-09T12:46:47;3.70;;;1.05;;
37201;SDS011;37799;52.390;6.136;2023-07-09T12:49:22;4.18;;;1.00;;
37201;SDS011;37799;52.390;6.136;2023-07-09T12:51:51;5.63;;;1.27;;
37201;SDS011;37799;52.390;6.136;2023-07-09T12:54:21;3.92;;;1.15;;
37201;SDS011;37799;52.390;6.136;2023-07-09T12:56:50;3.53;;;1.33;;
37201;SDS011;37799;52.390;6.136;2023-07-09T13:01:55;4.00;;;0.90;;
37201;SDS011;37799;52.390;6.136;2023-07-09T13:04:33;4.10;;;1.50;;
37201;SDS011;37799;52.390;6.136;2023-07-09T13:07:02;4.15;;;1.20;;
37201;SDS011;37799;52.390;6.136;2023-07-09T13:09:28;4.60;;;1.27;;
37201;SDS011;37799;52.390;6.136;2023-07-09T13:11:54;4.30;;;1.30;;
37201;SDS011;37799;52.390;6.136;2023-07-09T13:14:27;3.63;;;1.15;;
37201;SDS011;37799;52.390;6.136;2023-07-09T13:17:08;4.25;;;1.27;;
37201;SDS011;37799;52.390;6.136;2023-07-09T13:19:34;4.10;;;0.98;;
37201;SDS011;37799;52.390;6.136;2023-07-09T13:22:00;5.90;;;1.35;;
37201;SDS011;37799;52.390;6.136;2023-07-09T13:24:30;3.80;;;1.20;;
37201;SDS011;37799;52.390;6.136;2023-07-09T13:26:58;9.52;;;1.20;;
37201;SDS011;37799;52.390;6.136;2023-07-09T13:29:26;3.28;;;1.05;;
37201;SDS011;37799;52.390;6.136;2023-07-09T13:31:52;3.38;;;1.02;;
37201;SDS011;37799;52.390;6.136;2023-07-09T13:34:21;3.25;;;0.80;;
37201;SDS011;37799;52.390;6.136;2023-07-09T13:36:49;5.20;;;0.80;;
37201;SDS011;37799;52.390;6.136;2023-07-09T13:39:16;3.67;;;0.90;;
37201;SDS011;37799;52.390;6.136;2023-07-09T13:41:42;2.83;;;0.82;;
37201;SDS011;37799;52.390;6.136;2023-07-09T13:44:21;3.10;;;0.88;;
37201;SDS011;37799;52.390;6.136;2023-07-09T13:46:55;2.72;;;0.70;;
37201;SDS011;37799;52.390;6.136;2023-07-09T13:49:22;4.65;;;0.85;;
37201;SDS011;37799;52.390;6.136;2023-07-09T13:51:50;2.95;;;1.00;;
37201;SDS011;37799;52.390;6.136;2023-07-09T13:54:19;4.18;;;0.63;;
37201;SDS011;37799;52.390;6.136;2023-07-09T13:56:52;2.78;;;0.60;;
37201;SDS011;37799;52.390;6.136;2023-07-09T13:59:21;4.20;;;0.80;;
37201;SDS011;37799;52.390;6.136;2023-07-09T14:01:50;3.33;;;0.80;;
37201;SDS011;37799;52.390;6.136;2023-07-09T14:04:19;2.33;;;0.57;;
37201;SDS011;37799;52.390;6.136;2023-07-09T14:06:45;4.45;;;0.80;;
37201;SDS011;37799;52.390;6.136;2023-07-09T14:09:14;4.93;;;0.98;;
37201;SDS011;37799;52.390;6.136;2023-07-09T14:11:44;5.45;;;1.20;;
37201;SDS011;37799;52.390;6.136;2023-07-09T14:14:23;5.05;;;1.08;;
37201;SDS011;37799;52.390;6.136;2023-07-09T14:16:58;4.20;;;1.23;;
37201;SDS011;37799;52.390;6.136;2023-07-09T14:19:24;6.63;;;1.65;;
37201;SDS011;37799;52.390;6.136;2023-07-09T14:21:51;4.65;;;1.30;;
37201;SDS011;37799;52.390;6.136;2023-07-09T14:24:25;4.28;;;1.40;;
37201;SDS011;37799;52.390;6.136;2023-07-09T14:26:52;5.28;;;1.10;;
37201;SDS011;37799;52.390;6.136;2023-07-09T14:29:20;5.22;;;1.30;;
37201;SDS011;37799;52.390;6.136;2023-07-09T14:31:46;5.13;;;1.25;;
37201;SDS011;37799;52.390;6.136;2023-07-09T14:36:55;6.03;;;1.45;;
37201;SDS011;37799;52.390;6.136;2023-07-09T14:39:22;5.38;;;1.20;;
37201;SDS011;37799;52.390;6.136;2023-07-09T14:41:48;7.50;;;1.42;;
37201;SDS011;37799;52.390;6.136;2023-07-09T14:44:27;4.05;;;1.05;;
37201;SDS011;37799;52.390;6.136;2023-07-09T14:46:55;3.60;;;0.98;;
37201;SDS011;37799;52.390;6.136;2023-07-09T14:49:22;5.80;;;1.60;;
37201;SDS011;37799;52.390;6.136;2023-07-09T14:51:50;4.60;;;1.30;;
37201;SDS011;37799;52.390;6.136;2023-07-09T14:54:30;4.93;;;1.60;;
37201;SDS011;37799;52.390;6.136;2023-07-09T14:56:57;4.47;;;1.10;;
37201;SDS011;37799;52.390;6.136;2023-07-09T14:59:23;5.13;;;1.10;;
37201;SDS011;37799;52.390;6.136;2023-07-09T15:01:54;3.97;;;1.27;;
37201;SDS011;37799;52.390;6.136;2023-07-09T15:05:28;5.10;;;1.13;;
37201;SDS011;37799;52.390;6.136;2023-07-09T15:08:16;4.32;;;1.38;;
37201;SDS011;37799;52.390;6.136;2023-07-09T15:11:07;4.43;;;1.05;;
37201;SDS011;37799;52.390;6.136;2023-07-09T15:13:42;3.20;;;0.90;;
37201;SDS011;37799;52.390;6.136;2023-07-09T15:16:29;3.67;;;0.65;;
37201;SDS011;37799;52.390;6.136;2023-07-09T15:19:03;4.60;;;1.08;;
37201;SDS011;37799;52.390;6.136;2023-07-09T15:21:36;3.67;;;0.85;;
37201;SDS011;37799;52.390;6.136;2023-07-09T15:24:01;3.50;;;0.65;;
37201;SDS011;37799;52.390;6.136;2023-07-09T15:26:28;3.63;;;1.00;;
37201;SDS011;37799;52.390;6.136;2023-07-09T15:28:54;3.22;;;1.00;;
37201;SDS011;37799;52.390;6.136;2023-07-09T15:31:23;2.63;;;0.70;;
37201;SDS011;37799;52.390;6.136;2023-07-09T15:33:48;3.33;;;0.95;;
37201;SDS011;37799;52.390;6.136;2023-07-09T15:36:14;3.15;;;0.82;;
37201;SDS011;37799;52.390;6.136;2023-07-09T15:39:03;3.67;;;1.13;;
37201;SDS011;37799;52.390;6.136;2023-07-09T15:41:28;4.45;;;1.00;;
37201;SDS011;37799;52.390;6.136;2023-07-09T15:43:53;4.13;;;1.10;;
37201;SDS011;37799;52.390;6.136;2023-07-09T15:46:20;4.05;;;1.25;;